sensor_id;sensor_type;location;lat;lon;timestamp;temperature;humidity
43671;DHT22;29267;50.906;7.248;2023-05-07T00:00:22;13.50;99.90
43671;DHT22;29267;50.906;7.248;2023-05-07T00:02:48;13.50;99.90
43671;DHT22;29267;50.906;7.248;2023-05-07T00:05:13;13.50;99.90
43671;DHT22;29267;50.906;7.248;2023-05-07T00:07:39;13.50;99.90
43671;DHT22;29267;50.906;7.248;2023-05-07T00:10:06;13.40;99.90
43671;DHT22;29267;50.906;7.248;2023-05-07T00:12:32;13.40;99.90
43671;DHT22;29267;50.906;7.248;2023-05-07T00:15:00;13.40;99.90
43671;DHT22;29267;50.906;7.248;2023-05-07T00:17:25;13.40;99.90
43671;DHT22;29267;50.906;7.248;2023-05-07T00:19:51;13.50;99.90
43671;DHT22;29267;50.906;7.248;2023-05-07T00:22:16;13.50;99.90
43671;DHT22;29267;50.906;7.248;2023-05-07T00:24:42;13.40;99.90
43671;DHT22;29267;50.906;7.248;2023-05-07T00:27:08;13.40;99.90
43671;DHT22;29267;50.906;7.248;2023-05-07T00:29:34;13.40;99.90
43671;DHT22;29267;50.906;7.248;2023-05-07T00:31:59;13.30;99.90
43671;DHT22;29267;50.906;7.248;2023-05-07T00:34:25;13.40;99.90
43671;DHT22;29267;50.906;7.248;2023-05-07T00:36:50;13.40;99.90
43671;DHT22;29267;50.906;7.248;2023-05-07T00:39:16;13.30;99.90
43671;DHT22;29267;50.906;7.248;2023-05-07T00:41:42;13.30;99.90
43671;DHT22;29267;50.906;7.248;2023-05-07T00:44:07;13.40;99.90
43671;DHT22;29267;50.906;7.248;2023-05-07T00:46:34;13.30;99.90
43671;DHT22;29267;50.906;7.248;2023-05-07T00:48:59;13.30;99.90
43671;DHT22;29267;50.906;7.248;2023-05-07T00:51:26;13.30;99.90
43671;DHT22;29267;50.906;7.248;2023-05-07T00:53:53;13.30;99.90
43671;DHT22;29267;50.906;7.248;2023-05-07T00:56:20;13.40;99.90
43671;DHT22;29267;50.906;7.248;2023-05-07T00:58:47;13.30;99.90
43671;DHT22;29267;50.906;7.248;2023-05-07T01:01:12;13.30;99.90
43671;DHT22;29267;50.906;7.248;2023-05-07T01:03:38;13.30;99.90
43671;DHT22;29267;50.906;7.248;2023-05-07T01:06:05;13.30;99.90
43671;DHT22;29267;50.906;7.248;2023-05-07T01:08:32;13.30;99.90
43671;DHT22;29267;50.906;7.248;2023-05-07T01:11:00;13.40;99.90
43671;DHT22;29267;50.906;7.248;2023-05-07T01:13:27;13.40;99.90
43671;DHT22;29267;50.906;7.248;2023-05-07T01:15:53;13.40;99.90
43671;DHT22;29267;50.906;7.248;2023-05-07T01:18:18;13.40;99.90
43671;DHT22;29267;50.906;7.248;2023-05-07T01:20:45;13.50;99.90
43671;DHT22;29267;50.906;7.248;2023-05-07T01:23:11;13.50;99.90
43671;DHT22;29267;50.906;7.248;2023-05-07T01:25:37;13.50;99.90
43671;DHT22;29267;50.906;7.248;2023-05-07T01:28:03;13.50;99.90
43671;DHT22;29267;50.906;7.248;2023-05-07T01:30:29;13.50;99.90
43671;DHT22;29267;50.906;7.248;2023-05-07T01:33:09;13.40;99.90
43671;DHT22;29267;50.906;7.248;2023-05-07T01:35:40;13.40;99.90
43671;DHT22;29267;50.906;7.248;2023-05-07T01:38:07;13.40;99.90
43671;DHT22;29267;50.906;7.248;2023-05-07T01:40:34;13.30;99.90
43671;DHT22;29267;50.906;7.248;2023-05-07T01:43:03;13.30;99.90
43671;DHT22;29267;50.906;7.248;2023-05-07T01:45:30;13.20;99.90
43671;DHT22;29267;50.906;7.248;2023-05-07T01:47:58;13.20;99.90
43671;DHT22;29267;50.906;7.248;2023-05-07T01:50:23;13.20;99.90
43671;DHT22;29267;50.906;7.248;2023-05-07T01:52:50;13.20;99.90
43671;DHT22;29267;50.906;7.248;2023-05-07T01:55:16;13.20;99.90
43671;DHT22;29267;50.906;7.248;2023-05-07T01:57:42;13.20;99.90
43671;DHT22;29267;50.906;7.248;2023-05-07T02:00:08;13.20;99.90
43671;DHT22;29267;50.906;7.248;2023-05-07T02:02:34;13.30;99.90
43671;DHT22;29267;50.906;7.248;2023-05-07T02:05:00;13.30;99.90
43671;DHT22;29267;50.906;7.248;2023-05-07T02:07:28;13.40;99.90
43671;DHT22;29267;50.906;7.248;2023-05-07T02:09:54;13.40;99.90
43671;DHT22;29267;50.906;7.248;2023-05-07T02:12:21;13.30;99.90
43671;DHT22;29267;50.906;7.248;2023-05-07T02:14:46;13.40;99.90
43671;DHT22;29267;50.906;7.248;2023-05-07T02:17:12;13.40;99.90
43671;DHT22;29267;50.906;7.248;2023-05-07T02:19:38;13.30;99.90
43671;DHT22;29267;50.906;7.248;2023-05-07T02:22:03;13.40;99.90
43671;DHT22;29267;50.906;7.248;2023-05-07T02:24:29;13.40;99.90
43671;DHT22;29267;50.906;7.248;2023-05-07T02:26:55;13.40;99.90
43671;DHT22;29267;50.906;7.248;2023-05-07T02:29:21;13.30;99.90
43671;DHT22;29267;50.906;7.248;2023-05-07T02:31:46;13.30;99.90
43671;DHT22;29267;50.906;7.248;2023-05-07T02:34:16;13.30;99.90
43671;DHT22;29267;50.906;7.248;2023-05-07T02:36:42;13.30;99.90
43671;DHT22;29267;50.906;7.248;2023-05-07T02:39:07;13.30;99.90
43671;DHT22;29267;50.906;7.248;2023-05-07T02:41:33;13.30;99.90
43671;DHT22;29267;50.906;7.248;2023-05-07T02:43:58;13.40;99.90
43671;DHT22;29267;50.906;7.248;2023-05-07T02:46:24;13.40;99.90
43671;DHT22;29267;50.906;7.248;2023-05-07T02:48:50;13.50;99.90
43671;DHT22;29267;50.906;7.248;2023-05-07T02:51:20;13.50;99.90
43671;DHT22;29267;50.906;7.248;2023-05-07T02:53:45;13.50;99.90
43671;DHT22;29267;50.906;7.248;2023-05-07T02:56:11;13.50;99.90
43671;DHT22;29267;50.906;7.248;2023-05-07T02:58:37;13.50;99.90
43671;DHT22;29267;50.906;7.248;2023-05-07T03:01:07;13.50;99.90
43671;DHT22;29267;50.906;7.248;2023-05-07T03:03:34;13.40;99.90
43671;DHT22;29267;50.906;7.248;2023-05-07T03:06:00;13.40;99.90
43671;DHT22;29267;50.906;7.248;2023-05-07T03:08:25;13.40;99.90
43671;DHT22;29267;50.906;7.248;2023-05-07T03:10:51;13.40;99.90
43671;DHT22;29267;50.906;7.248;2023-05-07T03:13:17;13.40;99.90
43671;DHT22;29267;50.906;7.248;2023-05-07T03:15:43;13.40;99.90
43671;DHT22;29267;50.906;7.248;2023-05-07T03:18:08;13.30;99.90
43671;DHT22;29267;50.906;7.248;2023-05-07T03:20:34;13.40;99.90
43671;DHT22;29267;50.906;7.248;2023-05-07T03:23:01;13.40;99.90
43671;DHT22;29267;50.906;7.248;2023-05-07T03:25:27;13.40;99.90
43671;DHT22;29267;50.906;7.248;2023-05-07T03:27:53;13.40;99.90
43671;DHT22;29267;50.906;7.248;2023-05-07T03:30:18;13.40;99.90
43671;DHT22;29267;50.906;7.248;2023-05-07T03:32:44;13.30;99.90
43671;DHT22;29267;50.906;7.248;2023-05-07T03:35:09;13.40;99.90
43671;DHT22;29267;50.906;7.248;2023-05-07T03:37:35;13.40;99.90
43671;DHT22;29267;50.906;7.248;2023-05-07T03:40:01;13.30;99.90
43671;DHT22;29267;50.906;7.248;2023-05-07T03:42:28;13.30;99.90
43671;DHT22;29267;50.906;7.248;2023-05-07T03:44:54;13.30;99.90
43671;DHT22;29267;50.906;7.248;2023-05-07T03:47:20;13.40;99.90
43671;DHT22;29267;50.906;7.248;2023-05-07T03:49:45;13.30;99.90
43671;DHT22;29267;50.906;7.248;2023-05-07T03:52:11;13.30;99.90
43671;DHT22;29267;50.906;7.248;2023-05-07T03:54:36;13.30;99.90
43671;DHT22;29267;50.906;7.248;2023-05-07T03:57:02;13.20;99.90
43671;DHT22;29267;50.906;7.248;2023-05-07T03:59:27;13.20;99.90
43671;DHT22;29267;50.906;7.248;2023-05-07T04:01:53;13.20;99.90
43671;DHT22;29267;50.906;7.248;2023-05-07T04:04:19;13.20;99.90
43671;DHT22;29267;50.906;7.248;2023-05-07T04:06:45;13.10;99.90
43671;DHT22;29267;50.906;7.248;2023-05-07T04:09:11;13.10;99.90
43671;DHT22;29267;50.906;7.248;2023-05-07T04:11:36;13.10;99.90
43671;DHT22;29267;50.906;7.248;2023-05-07T04:14:02;13.10;99.90
43671;DHT22;29267;50.906;7.248;2023-05-07T04:16:27;13.10;99.90
43671;DHT22;29267;50.906;7.248;2023-05-07T04:18:53;13.20;99.90
43671;DHT22;29267;50.906;7.248;2023-05-07T04:21:20;13.30;99.90
43671;DHT22;29267;50.906;7.248;2023-05-07T04:23:47;13.30;99.90
43671;DHT22;29267;50.906;7.248;2023-05-07T04:26:12;13.30;99.90
43671;DHT22;29267;50.906;7.248;2023-05-07T04:28:38;13.40;99.90
43671;DHT22;29267;50.906;7.248;2023-05-07T04:31:05;13.50;99.90
43671;DHT22;29267;50.906;7.248;2023-05-07T04:33:30;13.50;99.90
43671;DHT22;29267;50.906;7.248;2023-05-07T04:35:56;13.50;99.90
43671;DHT22;29267;50.906;7.248;2023-05-07T04:38:22;13.60;99.90
43671;DHT22;29267;50.906;7.248;2023-05-07T04:40:49;13.70;99.90
43671;DHT22;29267;50.906;7.248;2023-05-07T04:43:14;13.80;99.90
43671;DHT22;29267;50.906;7.248;2023-05-07T04:45:41;13.90;99.90
43671;DHT22;29267;50.906;7.248;2023-05-07T04:48:08;14.00;99.90
43671;DHT22;29267;50.906;7.248;2023-05-07T04:50:34;14.00;99.90
43671;DHT22;29267;50.906;7.248;2023-05-07T04:52:59;14.10;99.90
43671;DHT22;29267;50.906;7.248;2023-05-07T04:55:25;14.30;99.90
43671;DHT22;29267;50.906;7.248;2023-05-07T04:57:52;14.40;99.90
43671;DHT22;29267;50.906;7.248;2023-05-07T05:00:18;14.40;99.90
43671;DHT22;29267;50.906;7.248;2023-05-07T05:05:13;14.60;99.90
43671;DHT22;29267;50.906;7.248;2023-05-07T05:07:38;14.60;99.90
43671;DHT22;29267;50.906;7.248;2023-05-07T05:10:05;14.80;99.90
43671;DHT22;29267;50.906;7.248;2023-05-07T05:12:31;14.80;99.90
43671;DHT22;29267;50.906;7.248;2023-05-07T05:14:56;15.00;99.90
43671;DHT22;29267;50.906;7.248;2023-05-07T05:17:22;15.10;99.90
43671;DHT22;29267;50.906;7.248;2023-05-07T05:19:48;15.20;99.90
43671;DHT22;29267;50.906;7.248;2023-05-07T05:22:13;15.20;99.90
43671;DHT22;29267;50.906;7.248;2023-05-07T05:24:39;15.20;99.90
43671;DHT22;29267;50.906;7.248;2023-05-07T05:27:05;15.20;99.90
43671;DHT22;29267;50.906;7.248;2023-05-07T05:29:30;15.30;99.90
43671;DHT22;29267;50.906;7.248;2023-05-07T05:31:57;15.40;99.90
43671;DHT22;29267;50.906;7.248;2023-05-07T05:34:22;15.40;99.90
43671;DHT22;29267;50.906;7.248;2023-05-07T05:36:48;15.60;99.90
43671;DHT22;29267;50.906;7.248;2023-05-07T05:39:14;15.70;99.90
43671;DHT22;29267;50.906;7.248;2023-05-07T05:41:39;15.70;99.90
43671;DHT22;29267;50.906;7.248;2023-05-07T05:44:05;15.70;99.90
43671;DHT22;29267;50.906;7.248;2023-05-07T05:46:31;15.90;99.90
43671;DHT22;29267;50.906;7.248;2023-05-07T05:48:56;15.90;99.90
43671;DHT22;29267;50.906;7.248;2023-05-07T05:51:22;16.00;99.90
43671;DHT22;29267;50.906;7.248;2023-05-07T05:53:48;16.20;99.90
43671;DHT22;29267;50.906;7.248;2023-05-07T05:56:15;16.30;99.90
43671;DHT22;29267;50.906;7.248;2023-05-07T05:58:41;16.40;99.90
43671;DHT22;29267;50.906;7.248;2023-05-07T06:01:07;16.40;99.90
43671;DHT22;29267;50.906;7.248;2023-05-07T06:03:32;16.40;99.90
43671;DHT22;29267;50.906;7.248;2023-05-07T06:05:58;16.40;99.90
43671;DHT22;29267;50.906;7.248;2023-05-07T06:08:25;16.30;99.90
43671;DHT22;29267;50.906;7.248;2023-05-07T06:10:51;16.30;99.90
43671;DHT22;29267;50.906;7.248;2023-05-07T06:13:17;16.40;99.90
43671;DHT22;29267;50.906;7.248;2023-05-07T06:15:42;16.30;99.90
43671;DHT22;29267;50.906;7.248;2023-05-07T06:18:08;16.40;99.90
43671;DHT22;29267;50.906;7.248;2023-05-07T06:20:33;16.40;99.90
43671;DHT22;29267;50.906;7.248;2023-05-07T06:22:59;16.40;99.90
43671;DHT22;29267;50.906;7.248;2023-05-07T06:25:25;16.40;99.90
43671;DHT22;29267;50.906;7.248;2023-05-07T06:27:50;16.40;99.90
43671;DHT22;29267;50.906;7.248;2023-05-07T06:30:16;16.40;99.90
43671;DHT22;29267;50.906;7.248;2023-05-07T06:32:42;16.60;99.90
43671;DHT22;29267;50.906;7.248;2023-05-07T06:35:08;16.80;99.90
43671;DHT22;29267;50.906;7.248;2023-05-07T06:37:33;16.90;99.90
43671;DHT22;29267;50.906;7.248;2023-05-07T06:39:59;16.90;99.90
43671;DHT22;29267;50.906;7.248;2023-05-07T06:42:24;17.00;99.90
43671;DHT22;29267;50.906;7.248;2023-05-07T06:44:50;17.10;99.90
43671;DHT22;29267;50.906;7.248;2023-05-07T06:47:16;17.20;99.90
43671;DHT22;29267;50.906;7.248;2023-05-07T06:49:41;17.30;99.90
43671;DHT22;29267;50.906;7.248;2023-05-07T06:52:07;17.30;99.90
43671;DHT22;29267;50.906;7.248;2023-05-07T06:54:32;17.50;99.90
43671;DHT22;29267;50.906;7.248;2023-05-07T06:56:58;17.50;99.90
43671;DHT22;29267;50.906;7.248;2023-05-07T06:59:24;17.60;99.90
43671;DHT22;29267;50.906;7.248;2023-05-07T07:01:49;17.80;99.90
43671;DHT22;29267;50.906;7.248;2023-05-07T07:04:15;17.90;99.90
43671;DHT22;29267;50.906;7.248;2023-05-07T07:06:41;18.40;99.90
43671;DHT22;29267;50.906;7.248;2023-05-07T07:09:06;18.80;99.90
43671;DHT22;29267;50.906;7.248;2023-05-07T07:11:32;19.40;99.90
43671;DHT22;29267;50.906;7.248;2023-05-07T07:13:58;19.90;99.90
43671;DHT22;29267;50.906;7.248;2023-05-07T07:16:24;20.40;99.90
43671;DHT22;29267;50.906;7.248;2023-05-07T07:18:50;20.60;99.90
43671;DHT22;29267;50.906;7.248;2023-05-07T07:21:16;20.70;99.90
43671;DHT22;29267;50.906;7.248;2023-05-07T07:23:41;20.80;99.90
43671;DHT22;29267;50.906;7.248;2023-05-07T07:26:07;20.70;99.90
43671;DHT22;29267;50.906;7.248;2023-05-07T07:28:33;20.80;99.90
43671;DHT22;29267;50.906;7.248;2023-05-07T07:30:58;20.90;99.90
43671;DHT22;29267;50.906;7.248;2023-05-07T07:33:24;20.70;99.90
43671;DHT22;29267;50.906;7.248;2023-05-07T07:35:49;21.30;99.90
43671;DHT22;29267;50.906;7.248;2023-05-07T07:38:15;21.20;99.90
43671;DHT22;29267;50.906;7.248;2023-05-07T07:40:41;21.60;99.90
43671;DHT22;29267;50.906;7.248;2023-05-07T07:43:06;21.80;99.90
43671;DHT22;29267;50.906;7.248;2023-05-07T07:45:32;21.80;99.90
43671;DHT22;29267;50.906;7.248;2023-05-07T07:47:57;22.40;99.90
43671;DHT22;29267;50.906;7.248;2023-05-07T07:50:23;22.30;99.90
43671;DHT22;29267;50.906;7.248;2023-05-07T07:52:48;22.30;99.90
43671;DHT22;29267;50.906;7.248;2023-05-07T07:55:14;22.00;99.90
43671;DHT22;29267;50.906;7.248;2023-05-07T07:57:43;21.90;99.90
43671;DHT22;29267;50.906;7.248;2023-05-07T08:00:09;21.90;99.90
43671;DHT22;29267;50.906;7.248;2023-05-07T08:02:34;22.70;99.90
43671;DHT22;29267;50.906;7.248;2023-05-07T08:05:00;23.60;99.90
43671;DHT22;29267;50.906;7.248;2023-05-07T08:07:26;24.40;97.50
43671;DHT22;29267;50.906;7.248;2023-05-07T08:09:51;24.50;97.00
43671;DHT22;29267;50.906;7.248;2023-05-07T08:12:17;25.70;95.60
43671;DHT22;29267;50.906;7.248;2023-05-07T08:14:43;26.40;92.20
43671;DHT22;29267;50.906;7.248;2023-05-07T08:17:09;27.00;92.70
43671;DHT22;29267;50.906;7.248;2023-05-07T08:19:35;27.20;92.00
43671;DHT22;29267;50.906;7.248;2023-05-07T08:22:02;28.40;91.70
43671;DHT22;29267;50.906;7.248;2023-05-07T08:24:28;27.90;89.00
43671;DHT22;29267;50.906;7.248;2023-05-07T08:26:53;27.60;86.80
43671;DHT22;29267;50.906;7.248;2023-05-07T08:29:19;27.50;88.10
43671;DHT22;29267;50.906;7.248;2023-05-07T08:31:45;27.60;85.80
43671;DHT22;29267;50.906;7.248;2023-05-07T08:34:10;27.20;84.70
43671;DHT22;29267;50.906;7.248;2023-05-07T08:36:36;26.50;84.90
43671;DHT22;29267;50.906;7.248;2023-05-07T08:39:02;25.70;89.00
43671;DHT22;29267;50.906;7.248;2023-05-07T08:41:27;25.10;91.20
43671;DHT22;29267;50.906;7.248;2023-05-07T08:43:55;24.90;91.90
43671;DHT22;29267;50.906;7.248;2023-05-07T08:46:23;24.70;91.20
43671;DHT22;29267;50.906;7.248;2023-05-07T08:48:51;24.40;91.00
43671;DHT22;29267;50.906;7.248;2023-05-07T08:51:19;24.10;92.30
43671;DHT22;29267;50.906;7.248;2023-05-07T08:53:46;24.20;93.20
43671;DHT22;29267;50.906;7.248;2023-05-07T08:56:14;23.60;93.60
43671;DHT22;29267;50.906;7.248;2023-05-07T08:58:41;23.40;94.10
43671;DHT22;29267;50.906;7.248;2023-05-07T09:01:09;23.50;93.00
43671;DHT22;29267;50.906;7.248;2023-05-07T09:03:37;23.10;94.20
43671;DHT22;29267;50.906;7.248;2023-05-07T09:06:03;23.20;94.80
43671;DHT22;29267;50.906;7.248;2023-05-07T09:08:29;22.80;95.50
43671;DHT22;29267;50.906;7.248;2023-05-07T09:10:55;23.10;94.40
43671;DHT22;29267;50.906;7.248;2023-05-07T09:13:21;23.10;95.20
43671;DHT22;29267;50.906;7.248;2023-05-07T09:15:46;23.30;95.00
43671;DHT22;29267;50.906;7.248;2023-05-07T09:18:12;23.80;93.20
43671;DHT22;29267;50.906;7.248;2023-05-07T09:20:40;24.60;92.90
43671;DHT22;29267;50.906;7.248;2023-05-07T09:23:06;25.00;91.30
43671;DHT22;29267;50.906;7.248;2023-05-07T09:25:34;25.70;90.00
43671;DHT22;29267;50.906;7.248;2023-05-07T09:28:00;26.40;89.50
43671;DHT22;29267;50.906;7.248;2023-05-07T09:30:30;26.50;88.20
43671;DHT22;29267;50.906;7.248;2023-05-07T09:32:58;27.20;86.90
43671;DHT22;29267;50.906;7.248;2023-05-07T09:35:25;27.80;85.80
43671;DHT22;29267;50.906;7.248;2023-05-07T09:37:53;28.90;86.60
43671;DHT22;29267;50.906;7.248;2023-05-07T09:40:24;28.70;80.40
43671;DHT22;29267;50.906;7.248;2023-05-07T09:42:51;28.90;78.50
43671;DHT22;29267;50.906;7.248;2023-05-07T09:45:30;28.10;83.00
43671;DHT22;29267;50.906;7.248;2023-05-07T09:47:58;27.80;80.40
43671;DHT22;29267;50.906;7.248;2023-05-07T09:50:27;28.20;80.40
43671;DHT22;29267;50.906;7.248;2023-05-07T09:52:55;27.50;79.70
43671;DHT22;29267;50.906;7.248;2023-05-07T09:55:22;26.60;83.70
43671;DHT22;29267;50.906;7.248;2023-05-07T09:57:50;26.20;86.60
43671;DHT22;29267;50.906;7.248;2023-05-07T10:00:19;26.10;84.90
43671;DHT22;29267;50.906;7.248;2023-05-07T10:02:47;25.70;87.20
43671;DHT22;29267;50.906;7.248;2023-05-07T10:05:15;25.40;88.70
43671;DHT22;29267;50.906;7.248;2023-05-07T10:07:41;25.70;87.90
43671;DHT22;29267;50.906;7.248;2023-05-07T10:10:07;25.70;87.90
43671;DHT22;29267;50.906;7.248;2023-05-07T10:12:33;25.50;86.90
43671;DHT22;29267;50.906;7.248;2023-05-07T10:15:08;25.60;86.60
43671;DHT22;29267;50.906;7.248;2023-05-07T10:17:39;25.80;85.70
43671;DHT22;29267;50.906;7.248;2023-05-07T10:20:05;25.40;89.40
43671;DHT22;29267;50.906;7.248;2023-05-07T10:22:38;25.50;86.50
43671;DHT22;29267;50.906;7.248;2023-05-07T10:25:09;26.20;89.90
43671;DHT22;29267;50.906;7.248;2023-05-07T10:27:40;26.80;87.00
43671;DHT22;29267;50.906;7.248;2023-05-07T10:30:15;27.00;81.30
43671;DHT22;29267;50.906;7.248;2023-05-07T10:32:49;26.90;81.80
43671;DHT22;29267;50.906;7.248;2023-05-07T10:35:25;26.70;81.90
43671;DHT22;29267;50.906;7.248;2023-05-07T10:37:51;25.90;82.70
43671;DHT22;29267;50.906;7.248;2023-05-07T10:40:17;25.90;85.60
43671;DHT22;29267;50.906;7.248;2023-05-07T10:43:01;25.80;85.30
43671;DHT22;29267;50.906;7.248;2023-05-07T10:45:29;25.90;83.20
43671;DHT22;29267;50.906;7.248;2023-05-07T10:48:10;25.60;84.00
43671;DHT22;29267;50.906;7.248;2023-05-07T10:50:40;25.90;86.60
43671;DHT22;29267;50.906;7.248;2023-05-07T10:55:48;26.10;82.00
43671;DHT22;29267;50.906;7.248;2023-05-07T10:58:30;26.40;84.30
43671;DHT22;29267;50.906;7.248;2023-05-07T11:01:01;26.10;87.10
43671;DHT22;29267;50.906;7.248;2023-05-07T11:03:28;26.50;81.60
43671;DHT22;29267;50.906;7.248;2023-05-07T11:11:18;26.40;85.10
43671;DHT22;29267;50.906;7.248;2023-05-07T11:13:48;26.40;78.70
43671;DHT22;29267;50.906;7.248;2023-05-07T11:16:18;26.50;79.60
43671;DHT22;29267;50.906;7.248;2023-05-07T11:18:56;26.80;78.60
43671;DHT22;29267;50.906;7.248;2023-05-07T11:21:36;26.60;77.10
43671;DHT22;29267;50.906;7.248;2023-05-07T11:24:03;26.50;79.10
43671;DHT22;29267;50.906;7.248;2023-05-07T11:26:40;26.70;79.80
43671;DHT22;29267;50.906;7.248;2023-05-07T11:29:14;26.50;79.10
43671;DHT22;29267;50.906;7.248;2023-05-07T11:31:40;26.30;79.80
43671;DHT22;29267;50.906;7.248;2023-05-07T11:34:06;26.50;80.90
43671;DHT22;29267;50.906;7.248;2023-05-07T11:36:33;26.50;77.20
43671;DHT22;29267;50.906;7.248;2023-05-07T11:38:59;26.60;77.00
43671;DHT22;29267;50.906;7.248;2023-05-07T11:41:35;26.60;78.00
43671;DHT22;29267;50.906;7.248;2023-05-07T11:44:01;27.10;77.70
43671;DHT22;29267;50.906;7.248;2023-05-07T11:46:28;27.50;76.10
43671;DHT22;29267;50.906;7.248;2023-05-07T11:48:54;27.60;76.80
43671;DHT22;29267;50.906;7.248;2023-05-07T11:51:22;27.90;76.20
43671;DHT22;29267;50.906;7.248;2023-05-07T11:53:48;28.10;75.10
43671;DHT22;29267;50.906;7.248;2023-05-07T11:56:15;28.00;75.50
43671;DHT22;29267;50.906;7.248;2023-05-07T11:58:42;27.50;75.40
43671;DHT22;29267;50.906;7.248;2023-05-07T12:01:09;27.50;77.90
43671;DHT22;29267;50.906;7.248;2023-05-07T12:03:40;27.80;77.70
43671;DHT22;29267;50.906;7.248;2023-05-07T12:06:12;27.40;77.20
43671;DHT22;29267;50.906;7.248;2023-05-07T12:08:40;27.40;78.00
43671;DHT22;29267;50.906;7.248;2023-05-07T12:11:13;26.90;76.30
43671;DHT22;29267;50.906;7.248;2023-05-07T12:13:40;27.10;74.60
43671;DHT22;29267;50.906;7.248;2023-05-07T12:16:07;27.00;77.90
43671;DHT22;29267;50.906;7.248;2023-05-07T12:18:34;26.50;76.00
43671;DHT22;29267;50.906;7.248;2023-05-07T12:21:01;26.20;76.50
43671;DHT22;29267;50.906;7.248;2023-05-07T12:23:27;26.50;73.60
43671;DHT22;29267;50.906;7.248;2023-05-07T12:25:53;26.70;76.30
43671;DHT22;29267;50.906;7.248;2023-05-07T12:28:19;26.30;75.20
43671;DHT22;29267;50.906;7.248;2023-05-07T12:30:48;26.30;74.70
43671;DHT22;29267;50.906;7.248;2023-05-07T12:33:18;26.30;80.00
43671;DHT22;29267;50.906;7.248;2023-05-07T12:35:44;26.30;74.40
43671;DHT22;29267;50.906;7.248;2023-05-07T12:38:12;26.20;76.20
43671;DHT22;29267;50.906;7.248;2023-05-07T12:40:43;26.10;75.80
43671;DHT22;29267;50.906;7.248;2023-05-07T12:43:19;26.30;74.70
43671;DHT22;29267;50.906;7.248;2023-05-07T12:45:47;26.10;76.70
43671;DHT22;29267;50.906;7.248;2023-05-07T12:48:13;25.70;75.00
43671;DHT22;29267;50.906;7.248;2023-05-07T12:50:39;25.40;76.60
43671;DHT22;29267;50.906;7.248;2023-05-07T12:53:06;25.30;75.60
43671;DHT22;29267;50.906;7.248;2023-05-07T12:55:43;25.20;77.50
43671;DHT22;29267;50.906;7.248;2023-05-07T12:58:18;25.20;79.80
43671;DHT22;29267;50.906;7.248;2023-05-07T13:00:45;25.00;81.60
43671;DHT22;29267;50.906;7.248;2023-05-07T13:03:24;25.00;81.20
43671;DHT22;29267;50.906;7.248;2023-05-07T13:05:50;25.00;78.10
43671;DHT22;29267;50.906;7.248;2023-05-07T13:08:26;24.70;78.10
43671;DHT22;29267;50.906;7.248;2023-05-07T13:10:52;24.40;80.40
43671;DHT22;29267;50.906;7.248;2023-05-07T13:13:18;24.10;81.30
43671;DHT22;29267;50.906;7.248;2023-05-07T13:15:44;24.10;82.00
43671;DHT22;29267;50.906;7.248;2023-05-07T13:18:09;24.00;82.40
43671;DHT22;29267;50.906;7.248;2023-05-07T13:20:36;24.00;82.40
43671;DHT22;29267;50.906;7.248;2023-05-07T13:23:02;23.80;81.60
43671;DHT22;29267;50.906;7.248;2023-05-07T13:25:30;23.80;84.60
43671;DHT22;29267;50.906;7.248;2023-05-07T13:27:56;23.80;83.30
43671;DHT22;29267;50.906;7.248;2023-05-07T13:30:22;23.70;82.90
43671;DHT22;29267;50.906;7.248;2023-05-07T13:32:48;23.60;88.70
43671;DHT22;29267;50.906;7.248;2023-05-07T13:35:14;23.70;85.20
43671;DHT22;29267;50.906;7.248;2023-05-07T13:37:40;23.90;83.70
43671;DHT22;29267;50.906;7.248;2023-05-07T13:40:06;24.10;82.50
43671;DHT22;29267;50.906;7.248;2023-05-07T13:42:31;23.90;83.50
43671;DHT22;29267;50.906;7.248;2023-05-07T13:44:57;23.90;84.30
43671;DHT22;29267;50.906;7.248;2023-05-07T13:47:23;24.00;83.00
43671;DHT22;29267;50.906;7.248;2023-05-07T13:49:48;24.00;86.20
43671;DHT22;29267;50.906;7.248;2023-05-07T13:52:15;23.90;84.90
43671;DHT22;29267;50.906;7.248;2023-05-07T13:54:41;24.10;83.00
43671;DHT22;29267;50.906;7.248;2023-05-07T13:57:07;24.10;82.70
43671;DHT22;29267;50.906;7.248;2023-05-07T13:59:33;24.10;84.90
43671;DHT22;29267;50.906;7.248;2023-05-07T14:01:59;24.40;86.10
43671;DHT22;29267;50.906;7.248;2023-05-07T14:04:25;24.20;87.70
43671;DHT22;29267;50.906;7.248;2023-05-07T14:06:51;23.90;90.30
43671;DHT22;29267;50.906;7.248;2023-05-07T14:09:16;24.00;92.00
43671;DHT22;29267;50.906;7.248;2023-05-07T14:11:42;24.10;91.70
43671;DHT22;29267;50.906;7.248;2023-05-07T14:14:08;24.10;92.30
43671;DHT22;29267;50.906;7.248;2023-05-07T14:16:36;24.20;90.80
43671;DHT22;29267;50.906;7.248;2023-05-07T14:19:02;24.00;90.80
43671;DHT22;29267;50.906;7.248;2023-05-07T14:21:27;24.10;90.10
43671;DHT22;29267;50.906;7.248;2023-05-07T14:23:53;24.10;89.20
43671;DHT22;29267;50.906;7.248;2023-05-07T14:26:19;24.20;90.50
43671;DHT22;29267;50.906;7.248;2023-05-07T14:28:45;24.30;91.50
43671;DHT22;29267;50.906;7.248;2023-05-07T14:31:12;24.40;92.10
43671;DHT22;29267;50.906;7.248;2023-05-07T14:33:38;24.50;91.70
43671;DHT22;29267;50.906;7.248;2023-05-07T14:36:03;24.50;90.50
43671;DHT22;29267;50.906;7.248;2023-05-07T14:38:29;24.30;90.00
43671;DHT22;29267;50.906;7.248;2023-05-07T14:40:55;24.10;90.90
43671;DHT22;29267;50.906;7.248;2023-05-07T14:43:22;23.90;90.50
43671;DHT22;29267;50.906;7.248;2023-05-07T14:45:47;24.00;90.50
43671;DHT22;29267;50.906;7.248;2023-05-07T14:48:13;23.80;91.10
43671;DHT22;29267;50.906;7.248;2023-05-07T14:50:41;23.60;90.80
43671;DHT22;29267;50.906;7.248;2023-05-07T14:53:07;23.50;90.40
43671;DHT22;29267;50.906;7.248;2023-05-07T14:55:33;23.40;90.30
43671;DHT22;29267;50.906;7.248;2023-05-07T14:57:59;23.00;90.50
43671;DHT22;29267;50.906;7.248;2023-05-07T15:00:25;22.60;91.30
43671;DHT22;29267;50.906;7.248;2023-05-07T15:02:51;22.30;92.00
43671;DHT22;29267;50.906;7.248;2023-05-07T15:05:17;22.10;92.80
43671;DHT22;29267;50.906;7.248;2023-05-07T15:07:44;21.90;93.00
43671;DHT22;29267;50.906;7.248;2023-05-07T15:10:10;21.80;93.30
43671;DHT22;29267;50.906;7.248;2023-05-07T15:12:35;21.50;94.20
43671;DHT22;29267;50.906;7.248;2023-05-07T15:15:01;21.50;94.10
43671;DHT22;29267;50.906;7.248;2023-05-07T15:17:27;21.40;95.10
43671;DHT22;29267;50.906;7.248;2023-05-07T15:19:52;21.50;94.30
43671;DHT22;29267;50.906;7.248;2023-05-07T15:22:18;21.30;94.50
43671;DHT22;29267;50.906;7.248;2023-05-07T15:24:46;21.10;93.90
43671;DHT22;29267;50.906;7.248;2023-05-07T15:27:12;20.80;94.40
43671;DHT22;29267;50.906;7.248;2023-05-07T15:29:37;20.40;94.60
43671;DHT22;29267;50.906;7.248;2023-05-07T15:32:03;20.00;95.50
43671;DHT22;29267;50.906;7.248;2023-05-07T15:34:29;19.90;97.50
43671;DHT22;29267;50.906;7.248;2023-05-07T15:36:55;19.90;98.30